createdAt,value
2023-01-19T06:48:40.258Z,2.78
2023-01-19T06:51:25.803Z,1.55
2023-01-19T06:54:11.630Z,1.42
2023-01-19T06:56:57.981Z,1.33
2023-01-19T06:59:43.310Z,1.73
2023-01-19T07:02:29.581Z,1.08
2023-01-19T07:05:15.074Z,1.20
2023-01-19T07:08:02.020Z,1.10
2023-01-19T07:11:22.212Z,1.00
2023-01-19T07:14:01.817Z,0.98
2023-01-19T07:16:54.321Z,1.23
2023-01-19T07:19:40.443Z,1.10
2023-01-19T07:22:25.907Z,1.40
2023-01-19T07:25:11.696Z,1.45
2023-01-19T07:28:01.730Z,1.33
2023-01-19T07:30:51.409Z,1.20
2023-01-19T07:33:37.061Z,1.10
2023-01-19T07:36:24.765Z,1.00
2023-01-19T07:39:10.135Z,1.50
2023-01-19T07:41:55.922Z,1.10
2023-01-19T07:44:41.550Z,1.27
2023-01-19T07:47:28.075Z,1.17
2023-01-19T07:50:13.969Z,1.00
2023-01-19T07:53:06.069Z,1.33
2023-01-19T07:55:58.203Z,1.23
2023-01-19T07:58:43.764Z,1.05
2023-01-19T08:01:29.920Z,1.37
2023-01-19T08:04:17.965Z,1.35
2023-01-19T08:07:04.331Z,1.40
2023-01-19T08:09:49.681Z,1.40
2023-01-19T08:12:35.206Z,1.42
2023-01-19T08:15:23.056Z,1.30
2023-01-19T08:18:11.580Z,1.27
2023-01-19T08:20:59.796Z,1.20
2023-01-19T08:23:45.785Z,1.50
2023-01-19T08:26:33.059Z,1.85
2023-01-19T08:29:18.634Z,1.42
2023-01-19T08:32:04.999Z,2.10
2023-01-19T08:34:50.615Z,1.90
2023-01-19T08:37:35.974Z,2.42
2023-01-19T08:40:21.251Z,2.40
2023-01-19T08:43:12.936Z,3.10
2023-01-19T08:45:58.826Z,3.30
2023-01-19T08:48:56.015Z,3.60
2023-01-19T08:51:42.308Z,3.37
2023-01-19T08:54:27.737Z,3.50
2023-01-19T08:57:12.962Z,3.37
2023-01-19T09:00:00.405Z,3.05
2023-01-19T09:02:46.045Z,3.17
2023-01-19T09:05:37.296Z,3.33
2023-01-19T09:08:22.589Z,3.10
2023-01-19T09:11:12.134Z,3.70
2023-01-19T09:13:58.114Z,2.72
2023-01-19T09:16:43.546Z,3.70
2023-01-19T09:19:28.978Z,4.70
2023-01-19T09:22:18.330Z,3.58
2023-01-19T09:25:03.971Z,3.60
2023-01-19T09:27:50.774Z,3.72
2023-01-19T09:30:37.646Z,4.55
2023-01-19T09:33:24.646Z,4.07
2023-01-19T09:36:11.350Z,3.75
2023-01-19T09:38:58.194Z,5.45
2023-01-19T09:41:47.514Z,5.30
2023-01-19T09:44:34.703Z,3.78
2023-01-19T09:47:25.457Z,4.57
2023-01-19T09:50:22.972Z,5.60
2023-01-19T09:53:21.532Z,2.22
2023-01-19T09:56:12.290Z,5.47
2023-01-19T09:58:58.349Z,6.40
2023-01-19T10:01:51.976Z,3.35
2023-01-19T10:04:40.344Z,3.53
2023-01-19T10:07:34.265Z,2.72
2023-01-19T10:10:23.554Z,3.60
2023-01-19T10:13:30.808Z,3.97
2023-01-19T10:16:31.610Z,3.97
2023-01-19T10:19:52.452Z,2.42
2023-01-19T10:22:38.866Z,3.30
2023-01-19T10:25:24.533Z,2.37
2023-01-19T10:28:11.455Z,2.72
2023-01-19T10:30:56.652Z,3.45
2023-01-19T10:33:42.687Z,2.70
2023-01-19T10:36:39.754Z,2.65
2023-01-19T10:39:27.232Z,2.90
2023-01-19T10:42:16.106Z,3.45
2023-01-19T10:45:01.265Z,4.35
2023-01-19T10:47:48.181Z,4.53
2023-01-19T10:50:40.782Z,2.47
2023-01-19T10:53:26.903Z,3.47
2023-01-19T10:56:24.416Z,4.45
2023-01-19T10:59:40.078Z,6.80
2023-01-19T11:02:31.702Z,6.07
2023-01-19T11:05:26.859Z,4.32
2023-01-19T11:08:30.924Z,5.18
2023-01-19T11:11:16.036Z,6.00
2023-01-19T11:14:14.286Z,6.20
2023-01-19T11:16:59.627Z,5.60
2023-01-19T11:19:53.605Z,5.72
2023-01-19T11:22:39.461Z,4.90
2023-01-19T11:25:31.115Z,5.25
2023-01-19T11:28:35.544Z,9.32
2023-01-19T11:31:32.198Z,6.75
2023-01-19T11:34:26.887Z,6.07
2023-01-19T11:37:18.340Z,6.78
2023-01-19T11:40:06.051Z,5.62
2023-01-19T11:42:52.050Z,6.75
2023-01-19T11:45:43.665Z,13.88
2023-01-19T11:48:37.492Z,5.30
2023-01-19T11:51:23.670Z,4.47
2023-01-19T11:54:23.678Z,5.53
2023-01-19T11:57:17.275Z,5.40
2023-01-19T12:00:05.265Z,5.25
2023-01-19T12:02:54.596Z,5.18
2023-01-19T12:05:46.666Z,5.20
2023-01-19T12:08:37.850Z,5.62
2023-01-19T12:11:31.654Z,5.32
2023-01-19T12:14:41.130Z,4.85
2023-01-19T12:17:29.622Z,6.30
2023-01-19T12:20:21.148Z,6.40
2023-01-19T12:23:25.312Z,6.80
2023-01-19T12:26:16.802Z,7.65
2023-01-19T12:29:13.310Z,7.60
2023-01-19T12:32:14.043Z,6.40
2023-01-19T12:35:00.286Z,7.55
2023-01-19T12:37:45.734Z,7.47
2023-01-19T12:40:35.209Z,8.20
2023-01-19T12:43:21.006Z,6.95
